sensor_id;sensor_type;location;lat;lon;timestamp;temperature;humidity
32877;DHT22;19226;51.600;8.034;2023-09-08T00:00:07;20.00;99.90
32877;DHT22;19226;51.600;8.034;2023-09-08T00:02:53;19.90;99.90
32877;DHT22;19226;51.600;8.034;2023-09-08T00:05:38;19.90;99.90
32877;DHT22;19226;51.600;8.034;2023-09-08T00:08:22;19.90;99.90
32877;DHT22;19226;51.600;8.034;2023-09-08T00:11:08;19.90;99.90
32877;DHT22;19226;51.600;8.034;2023-09-08T00:13:53;19.80;99.90
32877;DHT22;19226;51.600;8.034;2023-09-08T00:16:38;19.70;99.90
32877;DHT22;19226;51.600;8.034;2023-09-08T00:19:25;19.70;99.90
32877;DHT22;19226;51.600;8.034;2023-09-08T00:22:10;19.70;99.90
32877;DHT22;19226;51.600;8.034;2023-09-08T00:24:54;19.60;99.90
32877;DHT22;19226;51.600;8.034;2023-09-08T00:27:39;19.60;99.90
32877;DHT22;19226;51.600;8.034;2023-09-08T00:30:24;19.60;99.90
32877;DHT22;19226;51.600;8.034;2023-09-08T00:33:08;19.60;99.90
32877;DHT22;19226;51.600;8.034;2023-09-08T00:35:53;19.50;99.90
32877;DHT22;19226;51.600;8.034;2023-09-08T00:38:38;19.60;99.90
32877;DHT22;19226;51.600;8.034;2023-09-08T00:41:22;19.50;99.90
32877;DHT22;19226;51.600;8.034;2023-09-08T00:44:07;19.30;99.90
32877;DHT22;19226;51.600;8.034;2023-09-08T00:46:53;19.30;99.90
32877;DHT22;19226;51.600;8.034;2023-09-08T00:49:38;19.20;99.90
32877;DHT22;19226;51.600;8.034;2023-09-08T00:52:23;19.10;99.90
32877;DHT22;19226;51.600;8.034;2023-09-08T00:55:08;19.10;99.90
32877;DHT22;19226;51.600;8.034;2023-09-08T00:57:53;19.10;99.90
32877;DHT22;19226;51.600;8.034;2023-09-08T01:00:37;19.00;99.90
32877;DHT22;19226;51.600;8.034;2023-09-08T01:03:22;19.00;99.90
32877;DHT22;19226;51.600;8.034;2023-09-08T01:06:06;19.00;99.90
32877;DHT22;19226;51.600;8.034;2023-09-08T01:08:52;19.00;99.90
32877;DHT22;19226;51.600;8.034;2023-09-08T01:11:36;19.00;99.90
32877;DHT22;19226;51.600;8.034;2023-09-08T01:14:21;18.90;99.90
32877;DHT22;19226;51.600;8.034;2023-09-08T01:17:05;18.90;99.90
32877;DHT22;19226;51.600;8.034;2023-09-08T01:19:54;18.80;99.90
32877;DHT22;19226;51.600;8.034;2023-09-08T01:26:17;18.70;99.90
32877;DHT22;19226;51.600;8.034;2023-09-08T01:29:03;18.70;99.90
32877;DHT22;19226;51.600;8.034;2023-09-08T01:31:51;18.70;99.90
32877;DHT22;19226;51.600;8.034;2023-09-08T01:34:37;18.60;99.90
32877;DHT22;19226;51.600;8.034;2023-09-08T01:37:24;18.60;99.90
32877;DHT22;19226;51.600;8.034;2023-09-08T01:40:09;18.60;99.90
32877;DHT22;19226;51.600;8.034;2023-09-08T01:42:55;18.60;99.90
32877;DHT22;19226;51.600;8.034;2023-09-08T01:45:40;18.60;99.90
32877;DHT22;19226;51.600;8.034;2023-09-08T01:48:25;18.60;99.90
32877;DHT22;19226;51.600;8.034;2023-09-08T01:51:09;18.50;99.90
32877;DHT22;19226;51.600;8.034;2023-09-08T01:53:54;18.50;99.90
32877;DHT22;19226;51.600;8.034;2023-09-08T01:56:38;18.50;99.90
32877;DHT22;19226;51.600;8.034;2023-09-08T01:59:23;18.50;99.90
32877;DHT22;19226;51.600;8.034;2023-09-08T02:02:07;18.40;99.90
32877;DHT22;19226;51.600;8.034;2023-09-08T02:04:52;18.40;99.90
32877;DHT22;19226;51.600;8.034;2023-09-08T02:07:36;18.30;99.90
32877;DHT22;19226;51.600;8.034;2023-09-08T02:10:21;18.30;99.90
32877;DHT22;19226;51.600;8.034;2023-09-08T02:13:05;18.20;99.90
32877;DHT22;19226;51.600;8.034;2023-09-08T02:15:50;18.10;99.90
32877;DHT22;19226;51.600;8.034;2023-09-08T02:18:35;18.00;99.90
32877;DHT22;19226;51.600;8.034;2023-09-08T02:21:20;17.90;99.90
32877;DHT22;19226;51.600;8.034;2023-09-08T02:24:05;17.90;99.90
32877;DHT22;19226;51.600;8.034;2023-09-08T02:26:50;17.80;99.90
32877;DHT22;19226;51.600;8.034;2023-09-08T02:29:35;17.80;99.90
32877;DHT22;19226;51.600;8.034;2023-09-08T02:32:20;17.70;99.90
32877;DHT22;19226;51.600;8.034;2023-09-08T02:35:05;17.50;99.90
32877;DHT22;19226;51.600;8.034;2023-09-08T02:37:50;17.50;99.90
32877;DHT22;19226;51.600;8.034;2023-09-08T02:40:35;17.40;99.90
32877;DHT22;19226;51.600;8.034;2023-09-08T02:43:19;17.30;99.90
32877;DHT22;19226;51.600;8.034;2023-09-08T02:46:05;17.20;99.90
32877;DHT22;19226;51.600;8.034;2023-09-08T02:48:51;17.10;99.90
32877;DHT22;19226;51.600;8.034;2023-09-08T02:51:37;17.00;99.90
32877;DHT22;19226;51.600;8.034;2023-09-08T02:54:21;17.00;99.90
32877;DHT22;19226;51.600;8.034;2023-09-08T02:57:06;16.90;99.90
32877;DHT22;19226;51.600;8.034;2023-09-08T02:59:52;16.90;99.90
32877;DHT22;19226;51.600;8.034;2023-09-08T03:02:36;17.00;99.90
32877;DHT22;19226;51.600;8.034;2023-09-08T03:05:21;17.00;99.90
32877;DHT22;19226;51.600;8.034;2023-09-08T03:08:06;17.00;99.90
32877;DHT22;19226;51.600;8.034;2023-09-08T03:10:55;17.00;99.90
32877;DHT22;19226;51.600;8.034;2023-09-08T03:13:42;17.00;99.90
32877;DHT22;19226;51.600;8.034;2023-09-08T03:16:28;16.90;99.90
32877;DHT22;19226;51.600;8.034;2023-09-08T03:19:12;16.90;99.90
32877;DHT22;19226;51.600;8.034;2023-09-08T03:21:57;16.90;99.90
32877;DHT22;19226;51.600;8.034;2023-09-08T03:24:43;16.90;99.90
32877;DHT22;19226;51.600;8.034;2023-09-08T03:27:28;17.00;99.90
32877;DHT22;19226;51.600;8.034;2023-09-08T03:30:13;17.00;99.90
32877;DHT22;19226;51.600;8.034;2023-09-08T03:32:58;17.00;99.90
32877;DHT22;19226;51.600;8.034;2023-09-08T03:35:42;17.00;99.90
32877;DHT22;19226;51.600;8.034;2023-09-08T03:38:27;17.00;99.90
32877;DHT22;19226;51.600;8.034;2023-09-08T03:41:12;17.00;99.90
32877;DHT22;19226;51.600;8.034;2023-09-08T03:43:56;17.00;99.90
32877;DHT22;19226;51.600;8.034;2023-09-08T03:46:41;17.00;99.90
32877;DHT22;19226;51.600;8.034;2023-09-08T03:49:25;17.00;99.90
32877;DHT22;19226;51.600;8.034;2023-09-08T03:52:10;17.00;99.90
32877;DHT22;19226;51.600;8.034;2023-09-08T03:54:55;16.90;99.90
32877;DHT22;19226;51.600;8.034;2023-09-08T03:57:39;16.80;99.90
32877;DHT22;19226;51.600;8.034;2023-09-08T04:00:24;16.80;99.90
32877;DHT22;19226;51.600;8.034;2023-09-08T04:03:09;16.80;99.90
32877;DHT22;19226;51.600;8.034;2023-09-08T04:05:53;16.80;99.90
32877;DHT22;19226;51.600;8.034;2023-09-08T04:08:38;16.70;99.90
32877;DHT22;19226;51.600;8.034;2023-09-08T04:11:22;16.60;99.90
32877;DHT22;19226;51.600;8.034;2023-09-08T04:14:06;16.60;99.90
32877;DHT22;19226;51.600;8.034;2023-09-08T04:16:52;16.60;99.90
32877;DHT22;19226;51.600;8.034;2023-09-08T04:19:37;16.70;99.90
32877;DHT22;19226;51.600;8.034;2023-09-08T04:22:22;16.70;99.90
32877;DHT22;19226;51.600;8.034;2023-09-08T04:25:06;16.70;99.90
32877;DHT22;19226;51.600;8.034;2023-09-08T04:27:51;16.70;99.90
32877;DHT22;19226;51.600;8.034;2023-09-08T04:30:36;16.70;99.90
32877;DHT22;19226;51.600;8.034;2023-09-08T04:33:20;16.70;99.90
32877;DHT22;19226;51.600;8.034;2023-09-08T04:36:06;16.70;99.90
32877;DHT22;19226;51.600;8.034;2023-09-08T04:38:52;16.70;99.90
32877;DHT22;19226;51.600;8.034;2023-09-08T04:41:37;16.70;99.90
32877;DHT22;19226;51.600;8.034;2023-09-08T04:44:22;16.70;99.90
32877;DHT22;19226;51.600;8.034;2023-09-08T04:47:07;16.70;99.90
32877;DHT22;19226;51.600;8.034;2023-09-08T04:49:52;16.70;99.90
32877;DHT22;19226;51.600;8.034;2023-09-08T04:52:36;16.70;99.90
32877;DHT22;19226;51.600;8.034;2023-09-08T04:55:23;16.70;99.90
32877;DHT22;19226;51.600;8.034;2023-09-08T04:58:07;16.70;99.90
32877;DHT22;19226;51.600;8.034;2023-09-08T05:00:52;16.70;99.90
32877;DHT22;19226;51.600;8.034;2023-09-08T05:03:37;16.70;99.90
32877;DHT22;19226;51.600;8.034;2023-09-08T05:06:22;16.70;99.90
32877;DHT22;19226;51.600;8.034;2023-09-08T05:09:07;16.70;99.90
32877;DHT22;19226;51.600;8.034;2023-09-08T05:11:52;16.70;99.90
32877;DHT22;19226;51.600;8.034;2023-09-08T05:14:37;16.70;99.90
32877;DHT22;19226;51.600;8.034;2023-09-08T05:17:23;16.70;99.90
32877;DHT22;19226;51.600;8.034;2023-09-08T05:20:09;16.60;99.90
32877;DHT22;19226;51.600;8.034;2023-09-08T05:22:54;16.60;99.90
32877;DHT22;19226;51.600;8.034;2023-09-08T05:25:42;16.60;99.90
32877;DHT22;19226;51.600;8.034;2023-09-08T05:28:27;16.60;99.90
32877;DHT22;19226;51.600;8.034;2023-09-08T05:31:11;16.60;99.90
32877;DHT22;19226;51.600;8.034;2023-09-08T05:33:55;16.60;99.90
32877;DHT22;19226;51.600;8.034;2023-09-08T05:36:40;16.60;99.90
32877;DHT22;19226;51.600;8.034;2023-09-08T05:39:27;16.50;99.90
32877;DHT22;19226;51.600;8.034;2023-09-08T05:42:11;16.50;99.90
32877;DHT22;19226;51.600;8.034;2023-09-08T05:44:57;16.50;99.90
32877;DHT22;19226;51.600;8.034;2023-09-08T05:47:42;16.60;99.90
32877;DHT22;19226;51.600;8.034;2023-09-08T05:50:27;16.50;99.90
32877;DHT22;19226;51.600;8.034;2023-09-08T05:53:12;16.50;99.90
32877;DHT22;19226;51.600;8.034;2023-09-08T05:55:57;16.50;99.90
32877;DHT22;19226;51.600;8.034;2023-09-08T05:58:41;16.50;99.90
32877;DHT22;19226;51.600;8.034;2023-09-08T06:01:27;16.60;99.90
32877;DHT22;19226;51.600;8.034;2023-09-08T06:04:11;16.60;99.90
32877;DHT22;19226;51.600;8.034;2023-09-08T06:06:56;16.60;99.90
32877;DHT22;19226;51.600;8.034;2023-09-08T06:09:41;16.70;99.90
32877;DHT22;19226;51.600;8.034;2023-09-08T06:12:25;16.80;99.90
32877;DHT22;19226;51.600;8.034;2023-09-08T06:15:10;16.90;99.90
32877;DHT22;19226;51.600;8.034;2023-09-08T06:17:54;16.90;99.90
32877;DHT22;19226;51.600;8.034;2023-09-08T06:20:48;17.00;99.90
32877;DHT22;19226;51.600;8.034;2023-09-08T06:23:33;17.10;99.90
32877;DHT22;19226;51.600;8.034;2023-09-08T06:26:18;17.20;99.90
32877;DHT22;19226;51.600;8.034;2023-09-08T06:29:05;17.30;99.90
32877;DHT22;19226;51.600;8.034;2023-09-08T06:31:49;17.40;99.90
32877;DHT22;19226;51.600;8.034;2023-09-08T06:34:34;17.50;99.90
32877;DHT22;19226;51.600;8.034;2023-09-08T06:37:21;17.60;99.90
32877;DHT22;19226;51.600;8.034;2023-09-08T06:40:06;17.70;99.90
32877;DHT22;19226;51.600;8.034;2023-09-08T06:42:52;17.90;99.90
32877;DHT22;19226;51.600;8.034;2023-09-08T06:45:52;18.00;99.90
32877;DHT22;19226;51.600;8.034;2023-09-08T06:48:40;18.20;99.90
32877;DHT22;19226;51.600;8.034;2023-09-08T06:51:24;18.30;99.90
32877;DHT22;19226;51.600;8.034;2023-09-08T06:54:09;18.40;99.90
32877;DHT22;19226;51.600;8.034;2023-09-08T06:56:57;18.50;99.90
32877;DHT22;19226;51.600;8.034;2023-09-08T06:59:43;18.70;99.90
32877;DHT22;19226;51.600;8.034;2023-09-08T07:02:28;18.80;99.90
32877;DHT22;19226;51.600;8.034;2023-09-08T07:05:13;18.90;99.90
32877;DHT22;19226;51.600;8.034;2023-09-08T07:07:57;19.10;99.90
32877;DHT22;19226;51.600;8.034;2023-09-08T07:10:43;19.20;99.90
32877;DHT22;19226;51.600;8.034;2023-09-08T07:13:27;19.30;99.90
32877;DHT22;19226;51.600;8.034;2023-09-08T07:16:12;19.50;99.90
32877;DHT22;19226;51.600;8.034;2023-09-08T07:18:57;19.70;99.90
32877;DHT22;19226;51.600;8.034;2023-09-08T07:21:45;19.80;99.90
32877;DHT22;19226;51.600;8.034;2023-09-08T07:24:29;20.00;99.90
32877;DHT22;19226;51.600;8.034;2023-09-08T07:27:14;20.20;99.90
32877;DHT22;19226;51.600;8.034;2023-09-08T07:30:00;20.40;99.90
32877;DHT22;19226;51.600;8.034;2023-09-08T07:32:44;20.50;99.90
32877;DHT22;19226;51.600;8.034;2023-09-08T07:35:29;20.70;99.90
32877;DHT22;19226;51.600;8.034;2023-09-08T07:38:13;20.90;99.90
32877;DHT22;19226;51.600;8.034;2023-09-08T07:40:58;21.10;99.90
32877;DHT22;19226;51.600;8.034;2023-09-08T07:43:46;21.30;99.90
32877;DHT22;19226;51.600;8.034;2023-09-08T07:46:32;21.50;99.90
32877;DHT22;19226;51.600;8.034;2023-09-08T07:49:18;21.70;99.90
32877;DHT22;19226;51.600;8.034;2023-09-08T07:52:03;21.80;99.90
32877;DHT22;19226;51.600;8.034;2023-09-08T07:54:48;22.10;99.90
32877;DHT22;19226;51.600;8.034;2023-09-08T07:57:33;22.30;99.90
32877;DHT22;19226;51.600;8.034;2023-09-08T08:00:17;22.40;99.90
32877;DHT22;19226;51.600;8.034;2023-09-08T08:03:02;22.60;99.90
32877;DHT22;19226;51.600;8.034;2023-09-08T08:05:47;22.80;99.90
32877;DHT22;19226;51.600;8.034;2023-09-08T08:08:32;23.00;99.90
32877;DHT22;19226;51.600;8.034;2023-09-08T08:11:17;23.20;99.90
32877;DHT22;19226;51.600;8.034;2023-09-08T08:14:04;23.40;99.90
32877;DHT22;19226;51.600;8.034;2023-09-08T08:16:48;23.60;99.90
32877;DHT22;19226;51.600;8.034;2023-09-08T08:19:33;23.80;99.90
32877;DHT22;19226;51.600;8.034;2023-09-08T08:22:18;24.00;99.90
32877;DHT22;19226;51.600;8.034;2023-09-08T08:25:03;24.10;99.90
32877;DHT22;19226;51.600;8.034;2023-09-08T08:27:48;24.40;99.90
32877;DHT22;19226;51.600;8.034;2023-09-08T08:30:32;24.60;99.90
32877;DHT22;19226;51.600;8.034;2023-09-08T08:33:17;24.80;99.90
32877;DHT22;19226;51.600;8.034;2023-09-08T08:36:02;25.00;99.90
32877;DHT22;19226;51.600;8.034;2023-09-08T08:38:47;25.20;99.90
32877;DHT22;19226;51.600;8.034;2023-09-08T08:41:33;25.40;99.90
32877;DHT22;19226;51.600;8.034;2023-09-08T08:44:22;25.60;99.90
32877;DHT22;19226;51.600;8.034;2023-09-08T08:47:08;25.80;99.90
32877;DHT22;19226;51.600;8.034;2023-09-08T08:49:55;26.00;99.90
32877;DHT22;19226;51.600;8.034;2023-09-08T08:52:40;26.20;99.90
32877;DHT22;19226;51.600;8.034;2023-09-08T08:55:25;26.30;99.90
32877;DHT22;19226;51.600;8.034;2023-09-08T08:58:10;26.50;99.90
32877;DHT22;19226;51.600;8.034;2023-09-08T09:00:59;26.70;99.90
32877;DHT22;19226;51.600;8.034;2023-09-08T09:03:44;26.90;99.90
32877;DHT22;19226;51.600;8.034;2023-09-08T09:06:32;27.00;99.90
32877;DHT22;19226;51.600;8.034;2023-09-08T09:09:17;27.20;99.90
32877;DHT22;19226;51.600;8.034;2023-09-08T09:12:02;27.30;99.90
32877;DHT22;19226;51.600;8.034;2023-09-08T09:14:47;27.60;99.90
32877;DHT22;19226;51.600;8.034;2023-09-08T09:17:35;27.70;99.90
32877;DHT22;19226;51.600;8.034;2023-09-08T09:20:20;27.80;99.90
32877;DHT22;19226;51.600;8.034;2023-09-08T09:23:05;28.00;99.90
32877;DHT22;19226;51.600;8.034;2023-09-08T09:25:50;28.10;99.90
32877;DHT22;19226;51.600;8.034;2023-09-08T09:28:46;28.30;99.90
32877;DHT22;19226;51.600;8.034;2023-09-08T09:31:32;28.50;99.90
32877;DHT22;19226;51.600;8.034;2023-09-08T09:34:19;28.60;99.90
32877;DHT22;19226;51.600;8.034;2023-09-08T09:37:04;28.80;99.90
32877;DHT22;19226;51.600;8.034;2023-09-08T09:39:54;28.90;99.90
32877;DHT22;19226;51.600;8.034;2023-09-08T09:42:39;29.10;99.90
32877;DHT22;19226;51.600;8.034;2023-09-08T09:45:25;29.20;99.90
32877;DHT22;19226;51.600;8.034;2023-09-08T09:48:10;29.20;99.90
32877;DHT22;19226;51.600;8.034;2023-09-08T09:50:55;29.40;99.90
32877;DHT22;19226;51.600;8.034;2023-09-08T09:53:41;29.50;99.90
32877;DHT22;19226;51.600;8.034;2023-09-08T09:56:26;29.60;99.90
32877;DHT22;19226;51.600;8.034;2023-09-08T09:59:12;29.70;99.90
32877;DHT22;19226;51.600;8.034;2023-09-08T10:01:58;29.80;99.90
32877;DHT22;19226;51.600;8.034;2023-09-08T10:04:43;29.90;99.90
32877;DHT22;19226;51.600;8.034;2023-09-08T10:07:28;29.90;99.90
32877;DHT22;19226;51.600;8.034;2023-09-08T10:10:12;30.10;99.90
32877;DHT22;19226;51.600;8.034;2023-09-08T10:13:01;30.30;99.90
32877;DHT22;19226;51.600;8.034;2023-09-08T10:15:48;30.40;99.90
32877;DHT22;19226;51.600;8.034;2023-09-08T10:18:35;30.40;99.90
32877;DHT22;19226;51.600;8.034;2023-09-08T10:21:21;30.50;99.90
32877;DHT22;19226;51.600;8.034;2023-09-08T10:24:26;30.60;99.90
32877;DHT22;19226;51.600;8.034;2023-09-08T10:27:11;30.70;99.90
32877;DHT22;19226;51.600;8.034;2023-09-08T10:29:56;30.70;99.90
32877;DHT22;19226;51.600;8.034;2023-09-08T10:32:41;30.90;99.90
32877;DHT22;19226;51.600;8.034;2023-09-08T10:35:28;31.00;99.90
32877;DHT22;19226;51.600;8.034;2023-09-08T10:38:29;31.20;99.90
32877;DHT22;19226;51.600;8.034;2023-09-08T10:44:04;31.30;99.90
32877;DHT22;19226;51.600;8.034;2023-09-08T10:46:52;31.30;99.90
32877;DHT22;19226;51.600;8.034;2023-09-08T10:49:36;31.40;99.90
32877;DHT22;19226;51.600;8.034;2023-09-08T10:52:23;31.50;99.90
32877;DHT22;19226;51.600;8.034;2023-09-08T10:55:08;31.60;99.90
32877;DHT22;19226;51.600;8.034;2023-09-08T10:57:57;31.70;99.90
32877;DHT22;19226;51.600;8.034;2023-09-08T11:00:47;31.80;99.90
32877;DHT22;19226;51.600;8.034;2023-09-08T11:06:23;31.90;99.90
32877;DHT22;19226;51.600;8.034;2023-09-08T11:09:08;31.90;99.90
32877;DHT22;19226;51.600;8.034;2023-09-08T11:11:53;31.80;99.90
32877;DHT22;19226;51.600;8.034;2023-09-08T11:14:38;31.90;99.90
32877;DHT22;19226;51.600;8.034;2023-09-08T11:17:28;32.10;99.90
32877;DHT22;19226;51.600;8.034;2023-09-08T11:20:13;32.10;99.90
32877;DHT22;19226;51.600;8.034;2023-09-08T11:22:58;32.20;99.90
32877;DHT22;19226;51.600;8.034;2023-09-08T11:25:44;32.10;99.00
32877;DHT22;19226;51.600;8.034;2023-09-08T11:28:28;32.10;99.90
32877;DHT22;19226;51.600;8.034;2023-09-08T11:31:13;32.20;99.80
32877;DHT22;19226;51.600;8.034;2023-09-08T11:33:58;32.30;98.10
32877;DHT22;19226;51.600;8.034;2023-09-08T11:36:44;32.40;99.10
32877;DHT22;19226;51.600;8.034;2023-09-08T11:39:28;32.50;98.50
32877;DHT22;19226;51.600;8.034;2023-09-08T11:42:14;32.60;97.30
32877;DHT22;19226;51.600;8.034;2023-09-08T11:44:59;32.70;96.20
32877;DHT22;19226;51.600;8.034;2023-09-08T11:47:43;32.60;94.80
32877;DHT22;19226;51.600;8.034;2023-09-08T11:50:29;32.70;95.40
32877;DHT22;19226;51.600;8.034;2023-09-08T11:53:19;32.80;93.30
32877;DHT22;19226;51.600;8.034;2023-09-08T11:56:04;32.70;92.30
32877;DHT22;19226;51.600;8.034;2023-09-08T11:58:49;32.80;92.40
32877;DHT22;19226;51.600;8.034;2023-09-08T12:01:35;32.80;91.20
32877;DHT22;19226;51.600;8.034;2023-09-08T12:04:20;32.70;89.80
32877;DHT22;19226;51.600;8.034;2023-09-08T12:07:05;32.60;90.20
32877;DHT22;19226;51.600;8.034;2023-09-08T12:09:50;32.70;91.00
32877;DHT22;19226;51.600;8.034;2023-09-08T12:12:40;32.70;90.40
32877;DHT22;19226;51.600;8.034;2023-09-08T12:15:32;32.80;90.30
32877;DHT22;19226;51.600;8.034;2023-09-08T12:18:18;32.90;90.00
32877;DHT22;19226;51.600;8.034;2023-09-08T12:21:05;32.90;90.20
32877;DHT22;19226;51.600;8.034;2023-09-08T12:23:51;32.90;87.00
32877;DHT22;19226;51.600;8.034;2023-09-08T12:26:36;33.00;85.90
32877;DHT22;19226;51.600;8.034;2023-09-08T12:29:21;33.00;87.90
32877;DHT22;19226;51.600;8.034;2023-09-08T12:32:05;33.10;88.40
32877;DHT22;19226;51.600;8.034;2023-09-08T12:34:51;33.20;87.50
32877;DHT22;19226;51.600;8.034;2023-09-08T12:37:39;33.10;83.20
32877;DHT22;19226;51.600;8.034;2023-09-08T12:40:27;33.00;85.00
32877;DHT22;19226;51.600;8.034;2023-09-08T12:43:11;33.20;87.20
32877;DHT22;19226;51.600;8.034;2023-09-08T12:45:56;33.40;88.90
32877;DHT22;19226;51.600;8.034;2023-09-08T12:48:40;33.60;87.90
32877;DHT22;19226;51.600;8.034;2023-09-08T12:51:25;33.70;86.70
32877;DHT22;19226;51.600;8.034;2023-09-08T12:54:12;33.80;86.10
32877;DHT22;19226;51.600;8.034;2023-09-08T12:56:57;33.70;84.50
32877;DHT22;19226;51.600;8.034;2023-09-08T12:59:41;33.60;85.10
32877;DHT22;19226;51.600;8.034;2023-09-08T13:02:26;33.70;86.10
32877;DHT22;19226;51.600;8.034;2023-09-08T13:05:10;33.70;85.80
32877;DHT22;19226;51.600;8.034;2023-09-08T13:07:55;33.70;85.90
32877;DHT22;19226;51.600;8.034;2023-09-08T13:10:39;33.70;88.10
32877;DHT22;19226;51.600;8.034;2023-09-08T13:13:24;33.80;86.90
32877;DHT22;19226;51.600;8.034;2023-09-08T13:16:08;33.90;87.40
32877;DHT22;19226;51.600;8.034;2023-09-08T13:18:53;33.90;88.20
32877;DHT22;19226;51.600;8.034;2023-09-08T13:21:37;34.00;89.40
32877;DHT22;19226;51.600;8.034;2023-09-08T13:24:22;34.00;90.40
32877;DHT22;19226;51.600;8.034;2023-09-08T13:27:06;34.10;91.10
32877;DHT22;19226;51.600;8.034;2023-09-08T13:29:54;34.30;89.70
32877;DHT22;19226;51.600;8.034;2023-09-08T13:32:39;34.30;88.20
32877;DHT22;19226;51.600;8.034;2023-09-08T13:35:23;34.40;89.10
32877;DHT22;19226;51.600;8.034;2023-09-08T13:38:08;34.50;90.10
32877;DHT22;19226;51.600;8.034;2023-09-08T13:40:52;34.70;90.10
32877;DHT22;19226;51.600;8.034;2023-09-08T13:43:37;34.90;89.30
32877;DHT22;19226;51.600;8.034;2023-09-08T13:46:22;34.90;87.60
32877;DHT22;19226;51.600;8.034;2023-09-08T13:49:06;34.90;86.10
32877;DHT22;19226;51.600;8.034;2023-09-08T13:51:51;34.90;86.10
32877;DHT22;19226;51.600;8.034;2023-09-08T13:54:37;34.80;87.50
32877;DHT22;19226;51.600;8.034;2023-09-08T13:57:22;34.80;87.30
32877;DHT22;19226;51.600;8.034;2023-09-08T14:00:10;34.90;87.30
32877;DHT22;19226;51.600;8.034;2023-09-08T14:02:55;35.20;88.40
32877;DHT22;19226;51.600;8.034;2023-09-08T14:05:40;35.20;86.50
32877;DHT22;19226;51.600;8.034;2023-09-08T14:08:25;35.30;86.60
32877;DHT22;19226;51.600;8.034;2023-09-08T14:11:09;35.40;87.80
32877;DHT22;19226;51.600;8.034;2023-09-08T14:13:53;35.40;86.50
32877;DHT22;19226;51.600;8.034;2023-09-08T14:16:38;35.50;85.60
32877;DHT22;19226;51.600;8.034;2023-09-08T14:19:23;35.60;86.50
32877;DHT22;19226;51.600;8.034;2023-09-08T14:22:07;35.90;87.50
32877;DHT22;19226;51.600;8.034;2023-09-08T14:24:52;36.00;84.70
32877;DHT22;19226;51.600;8.034;2023-09-08T14:27:36;36.10;83.80
32877;DHT22;19226;51.600;8.034;2023-09-08T14:30:20;36.20;84.10
32877;DHT22;19226;51.600;8.034;2023-09-08T14:33:06;36.30;85.60
32877;DHT22;19226;51.600;8.034;2023-09-08T14:35:51;36.50;84.00
32877;DHT22;19226;51.600;8.034;2023-09-08T14:38:36;36.50;82.60
32877;DHT22;19226;51.600;8.034;2023-09-08T14:41:20;36.60;82.30
32877;DHT22;19226;51.600;8.034;2023-09-08T14:44:05;36.70;82.40
32877;DHT22;19226;51.600;8.034;2023-09-08T14:46:51;36.70;82.50
32877;DHT22;19226;51.600;8.034;2023-09-08T14:49:36;36.70;82.40
32877;DHT22;19226;51.600;8.034;2023-09-08T14:52:20;36.70;83.20
32877;DHT22;19226;51.600;8.034;2023-09-08T14:55:06;36.70;81.60
32877;DHT22;19226;51.600;8.034;2023-09-08T14:57:51;36.70;81.10
32877;DHT22;19226;51.600;8.034;2023-09-08T15:00:35;36.70;80.20
32877;DHT22;19226;51.600;8.034;2023-09-08T15:03:20;36.80;79.90
32877;DHT22;19226;51.600;8.034;2023-09-08T15:06:05;36.80;79.10
32877;DHT22;19226;51.600;8.034;2023-09-08T15:08:53;36.90;80.10
32877;DHT22;19226;51.600;8.034;2023-09-08T15:11:37;37.20;80.90
32877;DHT22;19226;51.600;8.034;2023-09-08T15:14:24;37.20;80.90
32877;DHT22;19226;51.600;8.034;2023-09-08T15:17:11;37.20;77.90
32877;DHT22;19226;51.600;8.034;2023-09-08T15:19:56;37.30;84.80
32877;DHT22;19226;51.600;8.034;2023-09-08T15:22:42;37.30;84.70
32877;DHT22;19226;51.600;8.034;2023-09-08T15:25:27;37.30;79.50
32877;DHT22;19226;51.600;8.034;2023-09-08T15:28:12;37.30;81.70
32877;DHT22;19226;51.600;8.034;2023-09-08T15:30:57;37.30;82.40
32877;DHT22;19226;51.600;8.034;2023-09-08T15:33:41;37.30;83.00
32877;DHT22;19226;51.600;8.034;2023-09-08T15:36:26;37.20;83.70
32877;DHT22;19226;51.600;8.034;2023-09-08T15:39:11;37.20;84.90
32877;DHT22;19226;51.600;8.034;2023-09-08T15:41:57;37.20;85.90
32877;DHT22;19226;51.600;8.034;2023-09-08T15:44:41;37.30;82.60
32877;DHT22;19226;51.600;8.034;2023-09-08T15:47:26;37.50;78.60
32877;DHT22;19226;51.600;8.034;2023-09-08T15:50:10;37.40;81.50
32877;DHT22;19226;51.600;8.034;2023-09-08T15:52:56;37.40;81.90
32877;DHT22;19226;51.600;8.034;2023-09-08T15:55:41;37.60;79.60
32877;DHT22;19226;51.600;8.034;2023-09-08T15:58:25;37.50;81.70
32877;DHT22;19226;51.600;8.034;2023-09-08T16:01:10;37.60;79.90
32877;DHT22;19226;51.600;8.034;2023-09-08T16:03:56;37.50;77.90
32877;DHT22;19226;51.600;8.034;2023-09-08T16:06:40;37.60;76.50
32877;DHT22;19226;51.600;8.034;2023-09-08T16:09:25;37.70;77.10
32877;DHT22;19226;51.600;8.034;2023-09-08T16:12:09;37.70;80.20
32877;DHT22;19226;51.600;8.034;2023-09-08T16:14:54;37.50;81.30
32877;DHT22;19226;51.600;8.034;2023-09-08T16:17:38;37.70;81.20
32877;DHT22;19226;51.600;8.034;2023-09-08T16:20:23;37.60;80.40
32877;DHT22;19226;51.600;8.034;2023-09-08T16:23:07;37.80;81.80
32877;DHT22;19226;51.600;8.034;2023-09-08T16:25:53;38.10;79.10
32877;DHT22;19226;51.600;8.034;2023-09-08T16:28:37;38.30;77.80
32877;DHT22;19226;51.600;8.034;2023-09-08T16:31:22;38.50;77.00
32877;DHT22;19226;51.600;8.034;2023-09-08T16:34:06;38.70;75.60
32877;DHT22;19226;51.600;8.034;2023-09-08T16:36:51;38.80;74.70
32877;DHT22;19226;51.600;8.034;2023-09-08T16:39:36;38.90;74.70
32877;DHT22;19226;51.600;8.034;2023-09-08T16:42:20;38.70;74.50
32877;DHT22;19226;51.600;8.034;2023-09-08T16:45:05;38.70;74.50
32877;DHT22;19226;51.600;8.034;2023-09-08T16:47:50;38.80;74.30
32877;DHT22;19226;51.600;8.034;2023-09-08T16:50:34;38.50;75.10
32877;DHT22;19226;51.600;8.034;2023-09-08T16:53:19;38.20;74.90
32877;DHT22;19226;51.600;8.034;2023-09-08T16:56:04;37.90;76.10
32877;DHT22;19226;51.600;8.034;2023-09-08T16:58:53;37.60;77.60
32877;DHT22;19226;51.600;8.034;2023-09-08T17:01:37;37.20;78.70
32877;DHT22;19226;51.600;8.034;2023-09-08T17:04:22;36.90;80.40
32877;DHT22;19226;51.600;8.034;2023-09-08T17:07:06;36.60;81.30
32877;DHT22;19226;51.600;8.034;2023-09-08T17:09:52;36.30;79.70
32877;DHT22;19226;51.600;8.034;2023-09-08T17:12:37;36.00;80.00
32877;DHT22;19226;51.600;8.034;2023-09-08T17:15:21;35.80;80.30
32877;DHT22;19226;51.600;8.034;2023-09-08T17:18:06;35.50;80.00
32877;DHT22;19226;51.600;8.034;2023-09-08T17:20:51;35.30;80.20
32877;DHT22;19226;51.600;8.034;2023-09-08T17:23:36;35.20;81.40
32877;DHT22;19226;51.600;8.034;2023-09-08T17:26:21;34.90;82.80
32877;DHT22;19226;51.600;8.034;2023-09-08T17:29:05;34.70;84.80
32877;DHT22;19226;51.600;8.034;2023-09-08T17:31:52;34.50;86.10